createdAt,value
2019-03-25T00:00:58.078Z,15.34
2019-03-25T00:01:58.081Z,15.34
2019-03-25T00:02:58.083Z,15.53
2019-03-25T00:03:58.093Z,15.44
2019-03-25T00:04:58.089Z,15.44
2019-03-25T00:05:58.095Z,15.34
2019-03-25T00:06:58.105Z,15.63
2019-03-25T00:07:58.098Z,15.05
2019-03-25T00:09:05.246Z,15.44
2019-03-25T00:09:58.104Z,15.05
2019-03-25T00:10:58.109Z,15.14
2019-03-25T00:11:58.107Z,15.14
2019-03-25T00:12:58.113Z,15.24
2019-03-25T00:13:58.123Z,15.44
2019-03-25T00:14:58.116Z,15.44
2019-03-25T00:15:58.121Z,15.44
2019-03-25T00:16:58.122Z,15.44
2019-03-25T00:17:58.125Z,15.34
2019-03-25T00:18:58.127Z,15.24
2019-03-25T00:19:58.130Z,15.34
2019-03-25T00:20:58.139Z,15.34
2019-03-25T00:21:58.141Z,15.24
2019-03-25T00:22:58.144Z,15.14
2019-03-25T00:23:58.149Z,15.14
2019-03-25T00:24:58.144Z,15.05
2019-03-25T00:25:58.147Z,15.05
2019-03-25T00:26:58.155Z,15.05
2019-03-25T00:27:58.152Z,15.14
2019-03-25T00:28:58.155Z,15.14
2019-03-25T00:29:58.158Z,15.24
2019-03-25T00:30:58.161Z,15.44
2019-03-25T00:31:58.163Z,15.44
2019-03-25T00:32:58.166Z,15.34
2019-03-25T00:33:58.168Z,15.34
2019-03-25T00:34:58.171Z,15.34
2019-03-25T00:35:58.175Z,15.34
2019-03-25T00:36:58.177Z,15.44
2019-03-25T00:37:58.178Z,15.34
2019-03-25T00:38:58.183Z,15.34
2019-03-25T00:39:58.184Z,15.34
2019-03-25T00:40:58.189Z,15.34
2019-03-25T00:41:58.190Z,15.44
2019-03-25T00:42:58.195Z,15.34
2019-03-25T00:43:58.196Z,15.34
2019-03-25T00:44:58.200Z,15.34
2019-03-25T00:45:58.201Z,15.34
2019-03-25T00:46:58.203Z,15.24
2019-03-25T00:47:58.207Z,15.34
2019-03-25T00:48:58.212Z,15.34
2019-03-25T00:49:58.213Z,15.24
2019-03-25T00:50:58.216Z,15.24
2019-03-25T00:51:58.216Z,15.34
2019-03-25T00:52:58.220Z,15.24
2019-03-25T00:53:58.222Z,15.34
2019-03-25T00:54:58.225Z,15.24
2019-03-25T00:55:58.229Z,15.34
2019-03-25T00:56:58.232Z,15.34
2019-03-25T00:57:58.233Z,15.24
2019-03-25T00:58:58.244Z,15.14
2019-03-25T00:59:58.240Z,15.14
2019-03-25T01:00:58.250Z,15.14
2019-03-25T01:01:58.244Z,15.24
2019-03-25T01:02:58.248Z,15.24
2019-03-25T01:03:58.250Z,15.24
2019-03-25T01:04:58.253Z,15.24
2019-03-25T01:05:58.255Z,15.34
2019-03-25T01:06:58.257Z,15.24
2019-03-25T01:07:58.261Z,15.14
2019-03-25T01:08:58.264Z,15.24
2019-03-25T01:09:58.266Z,15.24
2019-03-25T01:10:58.280Z,15.34
2019-03-25T01:11:58.368Z,15.24
2019-03-25T01:12:58.276Z,15.24
2019-03-25T01:13:58.279Z,15.24
2019-03-25T01:14:58.283Z,15.14
2019-03-25T01:15:58.283Z,15.34
2019-03-25T01:16:58.287Z,15.34
2019-03-25T01:17:58.288Z,15.14
2019-03-25T01:18:58.290Z,15.34
2019-03-25T01:19:58.293Z,15.34
2019-03-25T01:20:58.301Z,15.24
2019-03-25T01:21:58.299Z,15.34
2019-03-25T01:22:58.302Z,15.34
2019-03-25T01:23:58.304Z,15.24
2019-03-25T01:25:02.059Z,15.14
2019-03-25T01:25:58.309Z,15.24
2019-03-25T01:26:58.312Z,15.24
2019-03-25T01:27:58.315Z,15.24
2019-03-25T01:28:58.319Z,15.24
2019-03-25T01:29:58.320Z,15.34
2019-03-25T01:30:58.322Z,15.24
2019-03-25T01:31:58.333Z,15.24
2019-03-25T01:32:58.333Z,15.24
2019-03-25T01:33:58.335Z,15.34
2019-03-25T01:34:58.336Z,15.34
2019-03-25T01:35:58.337Z,15.24
2019-03-25T01:36:58.340Z,15.24
2019-03-25T01:37:58.344Z,15.14
2019-03-25T01:38:58.345Z,15.24
2019-03-25T01:39:58.350Z,15.24
2019-03-25T01:40:58.360Z,15.14
2019-03-25T01:41:58.353Z,15.24
2019-03-25T01:42:58.356Z,15.34
2019-03-25T01:43:58.359Z,15.34
2019-03-25T01:44:58.384Z,15.24
2019-03-25T01:45:58.366Z,15.34
2019-03-25T01:46:58.371Z,15.24
2019-03-25T01:47:58.370Z,15.24
2019-03-25T01:48:58.373Z,15.14
2019-03-25T01:49:58.375Z,15.34
2019-03-25T01:50:58.382Z,15.24
2019-03-25T01:51:58.384Z,15.14
2019-03-25T01:52:58.388Z,15.24
2019-03-25T01:53:58.387Z,15.34
2019-03-25T01:54:58.389Z,15.44
2019-03-25T01:55:58.392Z,15.24
2019-03-25T01:56:58.394Z,15.34
2019-03-25T01:57:58.398Z,15.24
2019-03-25T01:58:58.400Z,15.34
2019-03-25T01:59:58.403Z,15.34
2019-03-25T02:00:58.406Z,15.24
2019-03-25T02:01:58.410Z,15.24
2019-03-25T02:02:58.418Z,15.34
2019-03-25T02:03:58.419Z,15.24
2019-03-25T02:04:58.417Z,15.24
2019-03-25T02:05:58.419Z,15.14
2019-03-25T02:06:58.421Z,15.14
2019-03-25T02:07:58.424Z,15.14
2019-03-25T02:08:58.427Z,15.24
2019-03-25T02:09:58.432Z,15.34
2019-03-25T02:10:58.434Z,15.34
2019-03-25T02:11:58.437Z,15.24
2019-03-25T02:12:58.442Z,15.34
2019-03-25T02:13:58.442Z,15.24
2019-03-25T02:14:58.444Z,15.24
2019-03-25T02:15:58.446Z,15.44
2019-03-25T02:16:58.450Z,15.34
2019-03-25T02:17:58.451Z,15.24
2019-03-25T02:18:58.454Z,15.24
2019-03-25T02:19:58.457Z,15.34
2019-03-25T02:20:58.460Z,15.34
2019-03-25T02:21:58.470Z,15.34
2019-03-25T02:22:58.565Z,15.34
2019-03-25T02:23:58.467Z,15.34
2019-03-25T02:24:58.511Z,15.34
2019-03-25T02:25:58.472Z,15.34
2019-03-25T02:26:58.476Z,15.34
2019-03-25T02:27:58.492Z,15.24
2019-03-25T02:28:58.483Z,15.14
2019-03-25T02:29:58.483Z,15.34
2019-03-25T02:30:58.487Z,15.34
2019-03-25T02:31:58.493Z,15.24
2019-03-25T02:32:58.496Z,15.34
2019-03-25T02:33:58.495Z,15.34
2019-03-25T02:34:58.508Z,15.34
2019-03-25T02:35:58.504Z,15.34
2019-03-25T02:36:58.505Z,15.34
2019-03-25T02:37:58.507Z,15.24
2019-03-25T02:38:58.513Z,15.24
2019-03-25T02:39:58.512Z,15.34
2019-03-25T02:40:58.515Z,15.34
2019-03-25T02:41:58.518Z,15.24
2019-03-25T02:42:58.532Z,15.24
2019-03-25T02:43:58.523Z,15.34
2019-03-25T02:44:58.529Z,15.34
2019-03-25T02:45:58.527Z,15.34
2019-03-25T02:46:58.531Z,15.34
2019-03-25T02:47:58.539Z,15.34
2019-03-25T02:48:58.543Z,15.34
2019-03-25T02:49:58.539Z,15.34
2019-03-25T02:50:58.561Z,15.24
2019-03-25T02:51:58.547Z,15.34
2019-03-25T02:52:58.554Z,15.24
2019-03-25T02:53:58.548Z,15.44
2019-03-25T02:54:58.552Z,15.34
2019-03-25T02:55:58.555Z,15.24
2019-03-25T02:56:58.558Z,15.34
2019-03-25T02:57:58.561Z,15.34
2019-03-25T02:58:58.563Z,15.24
2019-03-25T02:59:58.571Z,15.34
2019-03-25T03:00:58.568Z,15.34
2019-03-25T03:01:58.587Z,15.34
2019-03-25T03:02:58.578Z,15.34
2019-03-25T03:03:58.577Z,15.24
2019-03-25T03:04:58.593Z,15.34
2019-03-25T03:05:58.582Z,15.34
2019-03-25T03:06:58.583Z,15.24
2019-03-25T03:07:58.601Z,15.24
2019-03-25T03:08:58.629Z,15.14
2019-03-25T03:09:58.606Z,15.34
2019-03-25T03:10:58.617Z,15.24
2019-03-25T03:11:58.604Z,15.34
2019-03-25T03:12:58.605Z,15.34
2019-03-25T03:13:58.605Z,15.34
2019-03-25T03:14:58.606Z,15.24
2019-03-25T03:15:58.612Z,15.34
2019-03-25T03:16:58.617Z,15.34
2019-03-25T03:17:58.615Z,15.34
2019-03-25T03:18:58.620Z,15.34
2019-03-25T03:19:58.621Z,15.34
2019-03-25T03:20:58.625Z,15.34
2019-03-25T03:21:58.637Z,15.34
2019-03-25T03:22:58.635Z,15.34
2019-03-25T03:23:58.656Z,15.34
2019-03-25T03:24:58.638Z,15.44
2019-03-25T03:25:58.648Z,15.34
2019-03-25T03:26:58.655Z,15.34
2019-03-25T03:27:58.641Z,15.24
2019-03-25T03:28:58.656Z,15.34
2019-03-25T03:29:58.652Z,15.34
2019-03-25T03:30:58.653Z,15.24
2019-03-25T03:31:58.665Z,15.24
2019-03-25T03:32:58.665Z,15.34
2019-03-25T03:33:58.666Z,15.34
2019-03-25T03:34:58.663Z,15.34
2019-03-25T03:35:58.663Z,15.24
2019-03-25T03:36:58.673Z,15.24
2019-03-25T03:37:58.685Z,15.24
2019-03-25T03:38:58.685Z,15.34
2019-03-25T03:39:58.684Z,15.24
2019-03-25T03:40:58.687Z,15.24
2019-03-25T03:41:58.686Z,15.34
2019-03-25T03:42:58.690Z,15.24
2019-03-25T03:44:00.673Z,15.24
2019-03-25T03:44:58.690Z,15.34
2019-03-25T03:45:58.750Z,15.34
2019-03-25T03:46:58.693Z,15.34
2019-03-25T03:47:58.697Z,15.24
2019-03-25T03:48:58.699Z,15.14
2019-03-25T03:49:58.701Z,15.34
2019-03-25T03:50:58.706Z,15.34
2019-03-25T03:51:58.710Z,15.34
2019-03-25T03:52:58.711Z,15.34
2019-03-25T03:53:58.712Z,15.34
2019-03-25T03:54:58.715Z,15.34
2019-03-25T03:56:11.957Z,15.34
2019-03-25T03:56:58.721Z,15.34
2019-03-25T03:57:58.724Z,15.34
2019-03-25T03:58:58.728Z,15.34
2019-03-25T03:59:58.726Z,15.34
2019-03-25T04:00:58.733Z,15.34
2019-03-25T04:01:58.738Z,15.14
2019-03-25T04:02:58.736Z,15.34
2019-03-25T04:03:58.739Z,15.34
2019-03-25T04:04:58.740Z,15.24
2019-03-25T04:05:58.743Z,15.24
2019-03-25T04:06:58.746Z,15.24
2019-03-25T04:07:58.750Z,15.24
2019-03-25T04:08:58.753Z,15.34
2019-03-25T04:09:58.755Z,15.14
2019-03-25T04:10:58.758Z,15.14
2019-03-25T04:11:58.793Z,15.24
2019-03-25T04:12:58.769Z,15.24
2019-03-25T04:13:58.777Z,15.24
2019-03-25T04:14:58.768Z,15.24
2019-03-25T04:16:01.405Z,15.34
2019-03-25T04:16:58.775Z,15.34
2019-03-25T04:17:58.782Z,15.34
2019-03-25T04:18:58.781Z,15.34
2019-03-25T04:19:58.783Z,15.34
2019-03-25T04:20:58.786Z,15.14
2019-03-25T04:21:58.791Z,15.24
2019-03-25T04:22:58.789Z,15.14
2019-03-25T04:23:58.793Z,15.24
2019-03-25T04:24:58.795Z,15.14
2019-03-25T04:25:58.799Z,15.34
2019-03-25T04:26:58.802Z,15.34
2019-03-25T04:27:58.903Z,15.24
2019-03-25T04:28:58.806Z,15.34
2019-03-25T04:29:58.810Z,15.34
2019-03-25T04:30:58.821Z,15.34
2019-03-25T04:31:58.816Z,15.34
2019-03-25T04:32:58.817Z,15.34
2019-03-25T04:33:58.819Z,15.34
2019-03-25T04:34:58.823Z,15.34
2019-03-25T04:35:58.826Z,15.34
2019-03-25T04:36:58.828Z,15.24
2019-03-25T04:37:58.830Z,15.34
2019-03-25T04:38:58.832Z,15.44
2019-03-25T04:39:58.836Z,15.24
2019-03-25T04:40:58.839Z,15.34
2019-03-25T04:41:58.846Z,15.14
2019-03-25T04:42:58.845Z,15.34
2019-03-25T04:43:58.847Z,15.24
2019-03-25T04:44:58.852Z,15.14
2019-03-25T04:45:58.854Z,15.34
2019-03-25T04:46:58.856Z,15.14
2019-03-25T04:47:58.857Z,15.14
2019-03-25T04:48:58.860Z,15.24
2019-03-25T04:49:58.863Z,15.14
2019-03-25T04:50:58.866Z,15.34
2019-03-25T04:51:58.869Z,15.24
2019-03-25T04:52:58.871Z,15.24
2019-03-25T04:53:58.873Z,15.34
2019-03-25T04:54:58.881Z,15.24
2019-03-25T04:55:58.878Z,15.14
2019-03-25T04:56:58.883Z,15.14
2019-03-25T04:57:58.882Z,15.34
2019-03-25T04:58:58.887Z,15.24
2019-03-25T04:59:58.891Z,15.34
2019-03-25T05:00:58.903Z,15.24
2019-03-25T05:01:58.901Z,15.14
2019-03-25T05:02:58.904Z,15.34
2019-03-25T05:03:58.902Z,15.24
2019-03-25T05:04:58.904Z,15.24
2019-03-25T05:05:58.906Z,15.24
2019-03-25T05:06:58.908Z,15.24
2019-03-25T05:07:58.912Z,15.24
2019-03-25T05:08:58.914Z,15.24
2019-03-25T05:09:58.917Z,15.24
2019-03-25T05:10:58.919Z,15.24
2019-03-25T05:11:58.922Z,15.14
2019-03-25T05:12:58.929Z,15.24
2019-03-25T05:13:58.927Z,15.24
2019-03-25T05:14:58.930Z,15.34
2019-03-25T05:15:58.933Z,15.34
2019-03-25T05:16:58.936Z,15.34
2019-03-25T05:17:58.940Z,15.14
2019-03-25T05:18:58.941Z,15.24
2019-03-25T05:19:58.943Z,15.53
2019-03-25T05:20:58.946Z,15.44
2019-03-25T05:21:58.949Z,15.63
2019-03-25T05:22:58.956Z,15.44
2019-03-25T05:23:58.956Z,15.53
2019-03-25T05:24:58.958Z,15.63
2019-03-25T05:25:58.962Z,15.14
2019-03-25T05:26:58.963Z,15.53
2019-03-25T05:27:58.967Z,15.44
2019-03-25T05:28:58.972Z,15.53
2019-03-25T05:29:58.976Z,15.63
2019-03-25T05:30:58.977Z,15.72
2019-03-25T05:31:58.980Z,15.82
2019-03-25T05:32:58.983Z,15.83
2019-03-25T05:33:58.986Z,15.83
2019-03-25T05:34:58.988Z,16.02
2019-03-25T05:35:59.005Z,15.92
2019-03-25T05:36:58.997Z,15.92
2019-03-25T05:37:58.997Z,16.31
2019-03-25T05:38:59.003Z,16.22
2019-03-25T05:39:59.004Z,16.22
2019-03-25T05:40:59.009Z,16.22
2019-03-25T05:41:59.013Z,16.02
2019-03-25T05:42:59.017Z,16.02
2019-03-25T05:43:59.016Z,15.92
2019-03-25T05:44:59.016Z,15.92
2019-03-25T05:45:59.019Z,15.92
2019-03-25T05:46:59.022Z,16.02
2019-03-25T05:47:59.024Z,16.02
2019-03-25T05:48:59.026Z,16.31
2019-03-25T05:49:59.030Z,16.02
2019-03-25T05:50:59.034Z,16.31
2019-03-25T05:51:59.035Z,16.41
2019-03-25T05:52:59.058Z,16.31
2019-03-25T05:53:59.042Z,16.22
2019-03-25T05:54:59.044Z,16.42
2019-03-25T05:55:59.049Z,16.31
2019-03-25T05:57:02.799Z,16.52
2019-03-25T05:57:59.054Z,16.52
2019-03-25T05:58:59.057Z,16.61
2019-03-25T05:59:59.061Z,16.81
2019-03-25T06:00:59.065Z,16.71
2019-03-25T06:01:59.077Z,16.81
2019-03-25T06:02:59.083Z,16.71
2019-03-25T06:03:59.072Z,16.71
2019-03-25T06:04:59.077Z,16.52
2019-03-25T06:05:59.077Z,16.42
2019-03-25T06:06:59.081Z,16.32
2019-03-25T06:07:59.083Z,16.42
2019-03-25T06:08:59.090Z,16.71
2019-03-25T06:09:59.090Z,16.61
2019-03-25T06:10:59.093Z,16.61
2019-03-25T06:11:59.097Z,16.91
2019-03-25T06:12:59.098Z,17.00
2019-03-25T06:13:59.109Z,16.71
2019-03-25T06:14:59.105Z,17.00
2019-03-25T06:15:59.109Z,16.91
2019-03-25T06:16:59.130Z,16.81
2019-03-25T06:17:59.115Z,17.00
2019-03-25T06:18:59.120Z,16.91
2019-03-25T06:19:59.136Z,16.91
2019-03-25T06:20:59.125Z,16.81
2019-03-25T06:21:59.127Z,16.91
2019-03-25T06:22:59.130Z,16.91
2019-03-25T06:23:59.133Z,16.91
2019-03-25T06:24:59.139Z,16.81
2019-03-25T06:25:59.150Z,16.91
2019-03-25T06:26:59.138Z,16.81
2019-03-25T06:27:59.143Z,16.72
2019-03-25T06:28:59.146Z,16.71
2019-03-25T06:29:59.145Z,16.81
2019-03-25T06:30:59.151Z,16.61
2019-03-25T06:31:59.154Z,16.71
2019-03-25T06:32:59.204Z,16.91
2019-03-25T06:33:59.160Z,16.91
2019-03-25T06:34:59.163Z,17.20
2019-03-25T06:35:59.166Z,17.20
2019-03-25T06:36:59.182Z,17.30
2019-03-25T06:37:59.177Z,17.11
2019-03-25T06:38:59.178Z,17.20
2019-03-25T06:39:59.179Z,17.58
2019-03-25T06:40:59.183Z,17.40
2019-03-25T06:41:59.188Z,17.58
2019-03-25T06:42:59.189Z,17.60
2019-03-25T06:43:59.195Z,17.49
2019-03-25T06:44:59.233Z,17.78
2019-03-25T06:45:59.198Z,17.78
2019-03-25T06:46:59.203Z,17.89
2019-03-25T06:47:59.206Z,17.89
2019-03-25T06:48:59.216Z,17.88
2019-03-25T06:49:59.211Z,18.07
2019-03-25T06:50:59.215Z,18.07
2019-03-25T06:51:59.219Z,17.88
2019-03-25T06:52:59.221Z,17.97
2019-03-25T06:53:59.272Z,17.98
2019-03-25T06:54:59.237Z,17.78
2019-03-25T06:55:59.230Z,17.68
2019-03-25T06:56:59.235Z,17.89
2019-03-25T06:57:59.237Z,17.79
2019-03-25T06:58:59.240Z,17.78
2019-03-25T06:59:59.243Z,17.68
2019-03-25T07:00:59.247Z,17.50
2019-03-25T07:01:59.250Z,18.07
2019-03-25T07:02:59.261Z,17.60
2019-03-25T07:03:59.262Z,18.07
2019-03-25T07:04:59.260Z,17.68
2019-03-25T07:05:59.264Z,17.68
2019-03-25T07:06:59.268Z,17.60
2019-03-25T07:07:59.272Z,17.97
2019-03-25T07:08:59.270Z,17.68
2019-03-25T07:09:59.276Z,17.78
2019-03-25T07:10:59.280Z,17.79
2019-03-25T07:11:59.282Z,17.69
2019-03-25T07:12:59.285Z,17.69
2019-03-25T07:13:59.292Z,17.69
2019-03-25T07:14:59.292Z,17.89
2019-03-25T07:15:59.294Z,17.69
2019-03-25T07:16:59.304Z,17.79
2019-03-25T07:17:59.301Z,17.79
2019-03-25T07:18:59.303Z,17.69
2019-03-25T07:19:59.308Z,17.89
2019-03-25T07:20:59.321Z,18.08
2019-03-25T07:21:59.315Z,18.37
2019-03-25T07:22:59.319Z,17.98
2019-03-25T07:23:59.322Z,18.08
2019-03-25T07:24:59.326Z,18.18
2019-03-25T07:25:59.327Z,18.18
2019-03-25T07:26:59.330Z,18.27
2019-03-25T07:27:59.332Z,18.37
2019-03-25T07:28:59.338Z,18.18
2019-03-25T07:29:59.341Z,18.27
2019-03-25T07:30:59.344Z,18.37
2019-03-25T07:31:59.349Z,18.37
2019-03-25T07:32:59.351Z,18.57
2019-03-25T07:33:59.352Z,18.27
2019-03-25T07:34:59.357Z,18.18
2019-03-25T07:35:59.360Z,18.27
2019-03-25T07:36:59.363Z,18.47
2019-03-25T07:37:59.371Z,18.57
2019-03-25T07:39:00.278Z,18.66
2019-03-25T07:39:59.383Z,18.47
2019-03-25T07:40:59.383Z,18.57
2019-03-25T07:41:59.385Z,18.37
2019-03-25T07:42:59.385Z,18.47
2019-03-25T07:43:59.389Z,18.57
2019-03-25T07:44:59.390Z,18.47
2019-03-25T07:45:59.393Z,18.66
2019-03-25T07:46:59.397Z,18.47
2019-03-25T07:47:59.401Z,18.57
2019-03-25T07:48:59.405Z,18.76
2019-03-25T07:49:59.406Z,18.76
2019-03-25T07:50:59.411Z,18.66
2019-03-25T07:51:59.416Z,18.86
2019-03-25T07:52:59.424Z,18.86
2019-03-25T07:53:59.535Z,18.47
2019-03-25T07:54:59.422Z,18.57
2019-03-25T07:55:59.443Z,18.57
2019-03-25T07:56:59.447Z,18.47
2019-03-25T07:57:59.441Z,18.57
2019-03-25T07:58:59.459Z,18.57
2019-03-25T07:59:59.449Z,18.66
2019-03-25T08:00:59.443Z,18.47
2019-03-25T08:01:59.470Z,18.47
2019-03-25T08:02:59.456Z,18.57
2019-03-25T08:03:59.486Z,18.47
2019-03-25T08:04:59.457Z,18.76
2019-03-25T08:05:59.458Z,18.37
2019-03-25T08:06:59.487Z,18.18
2019-03-25T08:07:59.466Z,18.37
2019-03-25T08:09:04.009Z,18.27
2019-03-25T08:09:59.475Z,18.47
2019-03-25T08:10:59.476Z,18.47
2019-03-25T08:11:59.511Z,18.27
2019-03-25T08:12:59.517Z,18.37
2019-03-25T08:13:59.524Z,18.37
2019-03-25T08:14:59.489Z,18.37
2019-03-25T08:15:59.528Z,18.18
2019-03-25T08:16:59.499Z,18.18
2019-03-25T08:17:59.498Z,18.18
2019-03-25T08:18:59.502Z,17.98
2019-03-25T08:19:59.506Z,18.18
2019-03-25T08:20:59.512Z,18.18
2019-03-25T08:21:59.511Z,18.08
2019-03-25T08:22:59.516Z,17.98
2019-03-25T08:23:59.520Z,18.08
2019-03-25T08:24:59.523Z,17.98
2019-03-25T08:25:59.528Z,18.27
2019-03-25T08:26:59.531Z,17.98
2019-03-25T08:28:00.572Z,17.98
2019-03-25T08:28:59.536Z,17.79
2019-03-25T08:29:59.539Z,18.08
2019-03-25T08:30:59.544Z,17.69
2019-03-25T08:31:59.547Z,17.50
2019-03-25T08:32:59.549Z,17.40
2019-03-25T08:33:59.552Z,17.50
2019-03-25T08:34:59.556Z,17.21
2019-03-25T08:35:59.560Z,17.21
2019-03-25T08:36:59.561Z,17.21
2019-03-25T08:37:59.566Z,17.11
2019-03-25T08:38:59.569Z,16.82
2019-03-25T08:39:59.574Z,16.82
2019-03-25T08:40:59.580Z,16.82
2019-03-25T08:41:59.583Z,16.82
2019-03-25T08:42:59.585Z,16.53
2019-03-25T08:43:59.606Z,16.53
2019-03-25T08:44:59.588Z,16.53
2019-03-25T08:45:59.594Z,16.33
2019-03-25T08:46:59.597Z,16.33
2019-03-25T08:47:59.599Z,16.14
2019-03-25T08:48:59.605Z,16.33
2019-03-25T08:49:59.607Z,15.94
2019-03-25T08:50:59.610Z,15.94
2019-03-25T08:51:59.613Z,16.03
2019-03-25T08:52:59.618Z,16.22
2019-03-25T08:53:59.620Z,16.32
2019-03-25T08:54:59.620Z,16.22
2019-03-25T08:55:59.627Z,15.84
2019-03-25T08:56:59.630Z,15.74
2019-03-25T08:58:11.258Z,16.13
2019-03-25T08:58:59.636Z,16.14
2019-03-25T08:59:59.643Z,15.84
2019-03-25T09:00:59.646Z,15.84
2019-03-25T09:01:59.647Z,15.74
2019-03-25T09:02:59.651Z,15.74
2019-03-25T09:03:59.655Z,15.84
2019-03-25T09:04:59.658Z,15.65
2019-03-25T09:05:59.717Z,15.55
2019-03-25T09:06:59.665Z,15.45
2019-03-25T09:07:59.664Z,15.45
2019-03-25T09:08:59.671Z,15.35
2019-03-25T09:09:59.675Z,15.26
2019-03-25T09:10:59.714Z,15.25
2019-03-25T09:11:59.680Z,14.97
2019-03-25T09:12:59.698Z,15.17
2019-03-25T09:13:59.687Z,15.16
2019-03-25T09:14:59.695Z,15.06
2019-03-25T09:15:59.691Z,14.96
2019-03-25T09:17:00.667Z,15.17
2019-03-25T09:17:59.709Z,15.16
2019-03-25T09:18:59.704Z,15.16
2019-03-25T09:19:59.705Z,14.87
2019-03-25T09:20:59.711Z,15.16
2019-03-25T09:21:59.711Z,14.87
2019-03-25T09:22:59.716Z,14.96
2019-03-25T09:23:59.718Z,15.16
2019-03-25T09:24:59.720Z,15.06
2019-03-25T09:25:59.725Z,15.25
2019-03-25T09:26:59.727Z,15.35
2019-03-25T09:27:59.731Z,14.97
2019-03-25T09:28:59.736Z,14.96
2019-03-25T09:29:59.740Z,15.06
2019-03-25T09:30:59.741Z,14.67
2019-03-25T09:31:59.745Z,14.67
2019-03-25T09:32:59.749Z,14.67
2019-03-25T09:33:59.755Z,14.58
2019-03-25T09:34:59.753Z,14.48
2019-03-25T09:35:59.864Z,14.18
2019-03-25T09:36:59.762Z,14.48
2019-03-25T09:37:59.763Z,14.18
2019-03-25T09:38:59.785Z,14.38
2019-03-25T09:39:59.777Z,14.38
2019-03-25T09:40:59.774Z,14.28
2019-03-25T09:41:59.780Z,14.28
2019-03-25T09:42:59.779Z,14.28
2019-03-25T09:43:59.788Z,14.38
2019-03-25T09:44:59.787Z,14.38
2019-03-25T09:45:59.789Z,14.09
2019-03-25T09:46:59.793Z,13.99
2019-03-25T09:47:59.796Z,14.18
2019-03-25T09:48:59.803Z,14.09
2019-03-25T09:49:59.803Z,13.99
2019-03-25T09:50:59.805Z,14.09
2019-03-25T09:51:59.808Z,14.28
2019-03-25T09:52:59.844Z,14.48
2019-03-25T09:53:59.825Z,14.38
2019-03-25T09:54:59.847Z,14.38
2019-03-25T09:55:59.827Z,14.37
2019-03-25T09:56:59.852Z,14.48
2019-03-25T09:57:59.826Z,14.09
2019-03-25T09:58:59.831Z,14.48
2019-03-25T09:59:59.832Z,14.38
2019-03-25T10:00:59.837Z,13.99
2019-03-25T10:01:59.838Z,14.38
2019-03-25T10:02:59.842Z,14.48
2019-03-25T10:03:59.849Z,14.38
2019-03-25T10:04:59.853Z,14.37
2019-03-25T10:05:59.855Z,13.98
2019-03-25T10:06:59.859Z,14.18
2019-03-25T10:07:59.868Z,13.98
2019-03-25T10:08:59.871Z,14.09
2019-03-25T10:09:59.871Z,14.18
2019-03-25T10:10:59.868Z,14.08
2019-03-25T10:11:59.889Z,14.18
2019-03-25T10:12:59.876Z,14.18
2019-03-25T10:13:59.879Z,14.09
2019-03-25T10:14:59.885Z,14.08
2019-03-25T10:15:59.885Z,14.18
2019-03-25T10:16:59.889Z,14.18
2019-03-25T10:17:59.893Z,14.09
2019-03-25T10:18:59.893Z,14.18
2019-03-25T10:19:59.898Z,14.28
2019-03-25T10:20:59.901Z,14.28
2019-03-25T10:21:59.904Z,14.28
2019-03-25T10:22:59.907Z,14.18
2019-03-25T10:23:59.936Z,14.18
2019-03-25T10:24:59.912Z,14.18
2019-03-25T10:25:59.925Z,14.18
2019-03-25T10:26:59.918Z,14.09
2019-03-25T10:27:59.924Z,14.18
2019-03-25T10:28:59.928Z,14.28
2019-03-25T10:29:59.928Z,14.08
2019-03-25T10:30:59.932Z,14.18
2019-03-25T10:31:59.936Z,13.98
2019-03-25T10:32:59.938Z,14.18
2019-03-25T10:33:59.944Z,13.89
2019-03-25T10:34:59.947Z,14.09
2019-03-25T10:35:59.963Z,14.08
2019-03-25T10:36:59.950Z,14.09
2019-03-25T10:37:59.952Z,13.98
2019-03-25T10:38:59.958Z,13.99
2019-03-25T10:39:59.959Z,13.99
2019-03-25T10:40:59.961Z,13.89
2019-03-25T10:41:59.967Z,13.89
2019-03-25T10:42:59.965Z,13.50
2019-03-25T10:43:59.971Z,13.69
2019-03-25T10:44:59.971Z,13.59
2019-03-25T10:45:59.990Z,13.59
2019-03-25T10:46:59.980Z,13.50
2019-03-25T10:47:59.981Z,13.40
2019-03-25T10:48:59.985Z,13.69
2019-03-25T10:50:00.002Z,13.40
2019-03-25T10:50:59.991Z,13.50
2019-03-25T10:51:59.995Z,13.21
2019-03-25T10:52:59.997Z,13.21
2019-03-25T10:53:59.998Z,13.31
2019-03-25T10:55:00.005Z,13.01
2019-03-25T10:56:00.009Z,13.31
2019-03-25T10:57:00.009Z,13.11
2019-03-25T10:58:00.012Z,13.21
2019-03-25T10:59:00.020Z,13.40
2019-03-25T11:00:00.018Z,13.31
2019-03-25T11:01:00.019Z,13.40
2019-03-25T11:02:00.027Z,13.11
2019-03-25T11:03:00.027Z,12.92
2019-03-25T11:04:00.032Z,12.92
2019-03-25T11:05:00.034Z,13.21
2019-03-25T11:06:00.041Z,13.01
2019-03-25T11:07:00.045Z,13.01
2019-03-25T11:08:00.046Z,13.21
2019-03-25T11:09:00.049Z,12.92
2019-03-25T11:10:00.049Z,13.11
2019-03-25T11:11:00.053Z,13.11
2019-03-25T11:12:00.054Z,13.11
2019-03-25T11:13:00.058Z,12.92
2019-03-25T11:14:00.063Z,12.72
2019-03-25T11:15:00.068Z,12.82
2019-03-25T11:16:00.067Z,12.72
2019-03-25T11:17:00.073Z,12.82
2019-03-25T11:18:00.073Z,12.82
2019-03-25T11:19:00.074Z,12.82
2019-03-25T11:20:00.111Z,12.92
2019-03-25T11:21:00.081Z,12.81
2019-03-25T11:22:00.082Z,12.72
2019-03-25T11:23:00.089Z,12.72
2019-03-25T11:24:00.090Z,12.62
2019-03-25T11:25:00.111Z,12.92
2019-03-25T11:26:00.094Z,13.10
2019-03-25T11:27:00.098Z,13.01
2019-03-25T11:28:00.100Z,13.11
2019-03-25T11:29:04.602Z,13.01
2019-03-25T11:30:00.124Z,13.11
2019-03-25T11:31:00.109Z,13.31
2019-03-25T11:32:00.114Z,13.40
2019-03-25T11:33:00.116Z,13.01
2019-03-25T11:34:00.117Z,13.11
2019-03-25T11:35:00.164Z,13.31
2019-03-25T11:36:00.127Z,13.31
2019-03-25T11:37:00.131Z,13.21
2019-03-25T11:38:00.138Z,13.11
2019-03-25T11:39:00.131Z,13.21
2019-03-25T11:40:00.358Z,13.50
2019-03-25T11:41:00.137Z,13.50
2019-03-25T11:42:00.139Z,13.40
2019-03-25T11:43:00.143Z,13.59
2019-03-25T11:44:00.152Z,13.40
2019-03-25T11:45:00.275Z,13.31
2019-03-25T11:46:00.149Z,13.50
2019-03-25T11:47:00.155Z,13.50
2019-03-25T11:48:00.157Z,13.50
2019-03-25T11:49:00.161Z,13.50
2019-03-25T11:50:00.167Z,13.69
2019-03-25T11:51:00.165Z,13.50
2019-03-25T11:52:00.170Z,13.50
2019-03-25T11:53:00.174Z,13.69
2019-03-25T11:54:00.174Z,13.79
2019-03-25T11:55:00.334Z,13.79
2019-03-25T11:56:00.180Z,13.69
2019-03-25T11:57:00.183Z,13.50
2019-03-25T11:58:00.227Z,13.70
2019-03-25T11:59:00.189Z,13.69
2019-03-25T12:00:00.334Z,13.79
2019-03-25T12:01:00.195Z,13.79
2019-03-25T12:02:00.198Z,13.79
2019-03-25T12:03:00.201Z,13.41
2019-03-25T12:04:00.221Z,13.79
2019-03-25T12:05:00.323Z,13.79
2019-03-25T12:06:00.209Z,13.51
2019-03-25T12:07:00.216Z,13.79
2019-03-25T12:08:00.215Z,13.79
2019-03-25T12:09:00.219Z,13.79
2019-03-25T12:10:00.311Z,13.41
2019-03-25T12:11:00.225Z,13.21
2019-03-25T12:12:00.229Z,13.51
2019-03-25T12:13:00.229Z,13.79
2019-03-25T12:14:00.232Z,13.51
2019-03-25T12:15:01.599Z,13.51
2019-03-25T12:16:00.247Z,13.51
2019-03-25T12:17:00.245Z,13.51
2019-03-25T12:18:00.248Z,13.51
2019-03-25T12:19:00.253Z,13.60
2019-03-25T12:20:00.393Z,13.60
2019-03-25T12:21:00.255Z,13.69
2019-03-25T12:22:00.254Z,13.60
2019-03-25T12:23:00.260Z,13.69
2019-03-25T12:24:00.261Z,13.60
2019-03-25T12:25:00.345Z,13.59
2019-03-25T12:26:00.269Z,13.69
2019-03-25T12:27:00.273Z,13.59
2019-03-25T12:28:00.275Z,13.70
2019-03-25T12:29:00.281Z,13.70
2019-03-25T12:30:00.387Z,13.59
2019-03-25T12:31:00.284Z,13.60
2019-03-25T12:32:00.288Z,13.51
2019-03-25T12:33:04.119Z,13.70
2019-03-25T12:34:00.291Z,13.69
2019-03-25T12:35:00.438Z,13.70
2019-03-25T12:36:00.298Z,13.69
2019-03-25T12:37:00.309Z,13.60
2019-03-25T12:38:00.307Z,13.60
2019-03-25T12:39:00.308Z,13.59
2019-03-25T12:40:00.388Z,13.51
2019-03-25T12:41:00.381Z,13.60
2019-03-25T12:42:00.314Z,13.51
2019-03-25T12:43:00.320Z,13.50
2019-03-25T12:44:00.320Z,13.51
2019-03-25T12:45:00.364Z,13.60
2019-03-25T12:46:00.332Z,13.60
2019-03-25T12:47:00.332Z,13.50
2019-03-25T12:48:00.335Z,13.50
2019-03-25T12:49:00.339Z,13.59
2019-03-25T12:50:00.462Z,13.59
2019-03-25T12:51:00.343Z,13.59
2019-03-25T12:52:00.347Z,13.59
2019-03-25T12:53:00.349Z,13.69